TimeCST,TemperatureF,Dew PointF,Humidity,Sea Level PressureIn,VisibilityMPH,Wind Direction,Wind SpeedMPH,Gust SpeedMPH,PrecipitationIn,Events,Conditions,WindDirDegrees,DateUTC
12:53 AM,39.0,35.1,86,30.06,10.0,West,5.8,-,N/A,,Clear,280,2013-02-14 06:53:00
1:53 AM,37.9,35.1,89,30.06,10.0,NW,3.5,-,N/A,,Clear,310,2013-02-14 07:53:00
2:53 AM,37.9,35.1,89,30.05,10.0,Calm,Calm,-,N/A,,Clear,0,2013-02-14 08:53:00
3:53 AM,35.1,33.1,92,30.07,6.0,WSW,3.5,-,N/A,,Clear,250,2013-02-14 09:53:00
4:53 AM,36.0,33.1,89,30.09,7.0,NNW,3.5,-,N/A,,Clear,330,2013-02-14 10:53:00
5:53 AM,36.0,34.0,93,30.10,7.0,NNW,3.5,-,N/A,,Clear,340,2013-02-14 11:53:00
6:53 AM,37.0,34.0,89,30.09,4.0,Calm,Calm,-,N/A,,Clear,0,2013-02-14 12:53:00
7:53 AM,39.9,37.0,89,30.14,6.0,Calm,Calm,-,N/A,,Clear,0,2013-02-14 13:53:00
8:53 AM,42.1,37.9,85,30.16,9.0,Calm,Calm,-,N/A,,Clear,0,2013-02-14 14:53:00
9:53 AM,46.9,39.0,74,30.15,10.0,East,4.6,-,N/A,,Scattered Clouds,100,2013-02-14 15:53:00
10:08 AM,46.4,37.4,71,30.15,10.0,Calm,Calm,-,N/A,,Mostly Cloudy,0,2013-02-14 16:08:00
10:49 AM,48.2,37.4,66,30.16,10.0,Calm,Calm,-,N/A,,Scattered Clouds,0,2013-02-14 16:49:00
10:53 AM,48.0,37.0,66,30.17,10.0,Variable,3.5,-,N/A,,Scattered Clouds,0,2013-02-14 16:53:00
11:53 AM,51.1,37.9,61,30.14,10.0,SSE,4.6,-,N/A,,Clear,160,2013-02-14 17:53:00
12:53 PM,52.0,36.0,54,30.11,10.0,WNW,3.5,-,N/A,,Clear,290,2013-02-14 18:53:00
1:53 PM,55.9,37.0,49,30.07,10.0,NW,5.8,-,N/A,,Clear,310,2013-02-14 19:53:00
2:53 PM,55.9,36.0,47,30.06,10.0,Calm,Calm,-,N/A,,Clear,0,2013-02-14 20:53:00
3:53 PM,57.0,37.9,49,30.06,10.0,Calm,Calm,-,N/A,,Clear,0,2013-02-14 21:53:00
4:53 PM,55.9,37.9,51,30.06,10.0,SSW,5.8,-,N/A,,Clear,210,2013-02-14 22:53:00
5:53 PM,53.1,37.0,55,30.07,10.0,SSW,3.5,-,N/A,,Clear,210,2013-02-14 23:53:00
6:53 PM,50.0,37.9,63,30.08,10.0,Calm,Calm,-,N/A,,Clear,0,2013-02-15 00:53:00
7:53 PM,46.0,37.9,73,30.10,10.0,SSW,4.6,-,N/A,,Clear,210,2013-02-15 01:53:00
8:53 PM,41.0,37.0,86,30.11,10.0,Calm,Calm,-,N/A,,Clear,0,2013-02-15 02:53:00
9:53 PM,44.1,37.0,76,30.11,10.0,SSW,3.5,-,N/A,,Clear,200,2013-02-15 03:53:00
10:53 PM,37.9,35.1,89,30.11,10.0,Calm,Calm,-,N/A,,Clear,0,2013-02-15 04:53:00
11:53 PM,41.0,37.0,86,30.10,10.0,Calm,Calm,-,N/A,,Clear,0,2013-02-15 05:53:00